Airfield :
LOGIN :

Register | Disclaimer

   EN    FR    IT 

 










Legend :    VFR   Marginal VFR   IFR   Intensive IFR   Very Intensive IFR
Visi :
Ceiling :
>= 8 km
>= 3000ft
5 to 8 km
1000 to 3000 ft
1500m to 5 km
500 to 1000 ft
800 to 1500m
200 to 500 ft
< 800m
< 200 ft
Symbols :   Thunderstorms  Fog  Heavy snow  Heavy precipitations  Wind > 20 kt
SIGMETs :     Misc.  Thunderstorms  Icing  Turbulence  Mountain Waves  Volcanic Ashes






- Airport Elevation : 586 ft
- IATA code : IEV


UKKK - Zhuliany

CURRENT METAR :
  • 291330Z 26006MPS 9999 FEW031CB BKN049 05/M02 Q1014 R26/CLRD70 NOSIG

EXPIRED METARs :
  • 291300Z 26007MPS 9999 BKN032 05/M02 Q1014 R26/CLRD70 NOSIG
  • 291230Z 26006MPS 9999 SCT029 06/M02 Q1014 R26/70D NOSIG
  • 291200Z 27006MPS 240V300 9999 SCT031 05/M03 Q1014 R26/70D NOSIG
  • 291130Z 27006MPS 240V300 9999 SCT031 06/M02 Q1014 R26/70D NOSIG
  • 291100Z 27006MPS 240V320 9999 BKN028 06/M02 Q1014 R26/70D NOSIG

TAF TAF UKKK
Valid from the 29 at 12:00 until the 01 at 12:00 UTC


291102Z 2912/0112 25005G10MPS 9999 BKN020 TX09/0112Z TN00/0104Z
TEMPO 2912/2916 22007G13MPS SCT015CB
BECMG 2916/2918 19005G10MPS
TEMPO 2918/0106 2000 BR BKN007
BECMG 0106/0108 19008G14MPS



MET'MAP, your aeronautical weather chart ! - Copyright ORBIFLY December 2007 - Disclaimer

ORBIFLY MET'MAP TEAM :

Programming & Development : Alexandra Zaïnal
Concept & original design : Baudouin d'Aumeries
Assistance for programming : Marc-Olivier Méhu
Technical & hardware support : Manuel Goepfert

Contact : metmap@orbifly.com




SOURCES & CREDITS :

   NOAA